Time;durP1;ratioP1;P1;durP2;ratioP2;P2;SDS_P1;SDS_P2;PMS_P1;PMS_P2;Temp;Humidity;BMP_temperature;BMP_pressure;BME280_temperature;BME280_humidity;BME280_pressure;Samples;Min_cycle;Max_cycle;Signal;HPM_P1;HPM_P2
2022/05/31 00:00:58;;;;;;;5.20;2.42;;;14.00;87.30;;;;;;5011331;28;20029;-64
2022/05/31 00:03:23;;;;;;;4.20;2.53;;;14.00;87.20;;;;;;5013643;28;20034;-65
2022/05/31 00:05:49;;;;;;;5.10;3.25;;;14.00;87.30;;;;;;4996894;28;20485;-65
2022/05/31 00:08:14;;;;;;;3.90;2.65;;;14.00;87.20;;;;;;5012042;28;20030;-66
2022/05/31 00:10:40;;;;;;;5.32;2.70;;;14.00;87.20;;;;;;5006998;28;20046;-65
2022/05/31 00:13:05;;;;;;;4.80;2.78;;;14.00;87.20;;;;;;4993863;28;20541;-65
2022/05/31 00:15:32;;;;;;;4.15;2.53;;;14.10;87.50;;;;;;4994643;28;20022;-65
2022/05/31 00:17:57;;;;;;;4.63;2.58;;;14.10;87.40;;;;;;5005391;28;20048;-65
2022/05/31 00:20:23;;;;;;;4.22;2.47;;;14.10;87.40;;;;;;5011590;28;20545;-65
2022/05/31 00:22:49;;;;;;;4.25;2.65;;;14.10;87.40;;;;;;5010833;28;20034;-65
2022/05/31 00:25:15;;;;;;;4.20;2.25;;;14.10;87.50;;;;;;5003538;28;20488;-65
2022/05/31 00:27:41;;;;;;;4.10;2.78;;;14.20;87.50;;;;;;5011664;28;20026;-66
2022/05/31 00:30:07;;;;;;;5.88;2.90;;;14.20;87.40;;;;;;5004590;28;20429;-65
2022/05/31 00:32:36;;;;;;;6.07;3.13;;;14.20;87.50;;;;;;5013200;28;20061;-66
2022/05/31 00:35:12;;;;;;;4.32;3.00;;;14.20;87.60;;;;;;5008972;28;20040;-66
2022/05/31 00:37:38;;;;;;;6.20;2.90;;;14.20;88.00;;;;;;5011205;28;20026;-66
2022/05/31 00:40:05;;;;;;;7.93;2.67;;;14.20;87.60;;;;;;5008802;28;20033;-66
2022/05/31 00:42:53;;;;;;;4.45;2.78;;;14.30;87.60;;;;;;5011620;28;20034;-67
2022/05/31 00:45:23;;;;;;;4.32;2.65;;;14.30;87.70;;;;;;5001297;28;20042;-66
2022/05/31 00:47:49;;;;;;;6.55;3.47;;;14.30;87.70;;;;;;4993460;28;20037;-66
2022/05/31 00:50:25;;;;;;;4.55;2.65;;;14.30;87.70;;;;;;5006545;28;20504;-66
2022/05/31 00:52:56;;;;;;;5.50;2.38;;;14.30;87.70;;;;;;5010795;28;20046;-66
2022/05/31 00:55:31;;;;;;;7.53;2.85;;;14.40;87.70;;;;;;4999003;28;20041;-66
2022/05/31 00:58:06;;;;;;;4.82;2.88;;;14.40;87.70;;;;;;4993256;28;20077;-66
2022/05/31 01:00:32;;;;;;;4.43;2.50;;;14.40;87.70;;;;;;5007341;28;20133;-66
2022/05/31 01:02:59;;;;;;;4.82;2.63;;;14.40;88.00;;;;;;5003811;28;20113;-66
2022/05/31 01:05:26;;;;;;;5.03;3.20;;;14.40;87.70;;;;;;5006991;28;20053;-66
2022/05/31 01:07:52;;;;;;;3.85;2.40;;;14.40;87.70;;;;;;4992648;28;20448;-66
2022/05/31 01:10:18;;;;;;;5.72;2.85;;;14.40;87.70;;;;;;5004914;28;20046;-66
2022/05/31 01:12:50;;;;;;;4.03;2.50;;;14.40;87.70;;;;;;5010976;28;20125;-66
2022/05/31 01:15:18;;;;;;;5.18;2.90;;;14.40;87.80;;;;;;4997867;28;20058;-66
2022/05/31 01:17:44;;;;;;;4.47;2.47;;;14.40;87.70;;;;;;4992621;28;20030;-66
2022/05/31 01:20:19;;;;;;;5.13;2.50;;;14.40;87.80;;;;;;5004960;28;20033;-66
2022/05/31 01:22:52;;;;;;;5.50;2.38;;;14.40;87.90;;;;;;5011740;28;20065;-65
2022/05/31 01:25:32;;;;;;;4.90;2.35;;;14.40;87.80;;;;;;5010338;28;20068;-65
2022/05/31 01:28:18;;;;;;;3.92;2.60;;;14.40;88.00;;;;;;5010291;28;20108;-65
2022/05/31 01:30:50;;;;;;;4.50;2.17;;;14.40;87.90;;;;;;4996066;28;20040;-65
2022/05/31 01:33:24;;;;;;;4.30;2.35;;;14.40;87.90;;;;;;5011921;28;20034;-65
2022/05/31 01:35:49;;;;;;;4.15;2.30;;;14.40;87.90;;;;;;4995482;28;20061;-65
2022/05/31 01:38:24;;;;;;;3.60;2.50;;;14.40;87.90;;;;;;5007064;28;20033;-65
2022/05/31 01:41:06;;;;;;;4.15;2.65;;;14.40;88.00;;;;;;4995664;28;20018;-65
2022/05/31 01:43:32;;;;;;;4.20;2.40;;;14.40;88.00;;;;;;4992091;28;20057;-65
2022/05/31 01:46:11;;;;;;;6.72;2.65;;;14.40;88.10;;;;;;4998426;28;20033;-65
2022/05/31 01:48:39;;;;;;;5.68;2.72;;;14.40;88.00;;;;;;5009365;28;20428;-65
2022/05/31 01:51:05;;;;;;;5.45;2.70;;;14.40;87.90;;;;;;4992209;28;20041;-65
2022/05/31 01:53:33;;;;;;;5.28;2.70;;;14.40;87.90;;;;;;4991587;28;20022;-65
2022/05/31 01:55:59;;;;;;;4.53;2.42;;;14.40;88.00;;;;;;4991244;28;20150;-65
2022/05/31 01:58:28;;;;;;;3.38;2.33;;;14.40;87.90;;;;;;4992042;28;20027;-64
2022/05/31 02:00:54;;;;;;;4.78;2.30;;;14.30;87.90;;;;;;4992435;28;20037;-64
2022/05/31 02:03:22;;;;;;;2.75;2.03;;;14.30;87.90;;;;;;4999420;28;20022;-65
2022/05/31 02:05:50;;;;;;;4.03;2.60;;;14.30;87.90;;;;;;5007619;28;20052;-64
2022/05/31 02:08:19;;;;;;;6.10;2.60;;;14.20;87.80;;;;;;5011063;28;20038;-64
2022/05/31 02:10:46;;;;;;;3.67;2.40;;;14.20;87.90;;;;;;5006405;28;20520;-65
2022/05/31 02:13:13;;;;;;;3.20;2.22;;;14.20;88.00;;;;;;5004825;28;20046;-64
2022/05/31 02:15:39;;;;;;;3.50;2.33;;;14.20;88.00;;;;;;5004926;28;20564;-64
2022/05/31 02:18:05;;;;;;;4.35;2.30;;;14.10;88.10;;;;;;4998035;28;20038;-64
2022/05/31 02:20:30;;;;;;;4.20;2.30;;;14.10;88.20;;;;;;5002084;28;20500;-65
2022/05/31 02:22:56;;;;;;;3.47;2.00;;;14.00;88.30;;;;;;4991789;28;20460;-65
2022/05/31 02:25:21;;;;;;;4.05;2.42;;;14.00;88.50;;;;;;5004264;28;20022;-65
2022/05/31 02:27:47;;;;;;;5.82;2.65;;;14.00;88.60;;;;;;4995663;28;20034;-64
2022/05/31 02:30:13;;;;;;;4.22;2.60;;;13.90;88.60;;;;;;4991567;28;20034;-65
2022/05/31 02:32:40;;;;;;;4.30;2.45;;;13.90;88.90;;;;;;5011160;28;20105;-65
2022/05/31 02:35:09;;;;;;;6.05;2.53;;;13.90;89.10;;;;;;4997579;28;20033;-65
2022/05/31 02:37:35;;;;;;;4.20;2.25;;;13.90;89.20;;;;;;4991706;28;20077;-65
2022/05/31 02:40:01;;;;;;;6.00;2.67;;;13.80;89.30;;;;;;5002900;28;20030;-65
2022/05/31 02:42:26;;;;;;;6.28;2.80;;;13.80;89.50;;;;;;4994634;28;20032;-66
2022/05/31 02:44:52;;;;;;;3.80;2.08;;;13.80;89.60;;;;;;4998337;28;20030;-66
2022/05/31 02:47:19;;;;;;;3.03;1.90;;;13.80;89.70;;;;;;4991626;28;20026;-66
2022/05/31 02:49:46;;;;;;;5.75;2.20;;;13.80;89.90;;;;;;5000535;28;20065;-66
2022/05/31 02:52:12;;;;;;;3.60;2.15;;;13.80;89.80;;;;;;5010993;28;20065;-66
2022/05/31 02:54:38;;;;;;;4.93;2.13;;;13.80;89.80;;;;;;5009407;28;20471;-66
2022/05/31 02:57:04;;;;;;;5.25;2.20;;;13.80;89.80;;;;;;5008562;28;20022;-65
2022/05/31 02:59:30;;;;;;;4.53;2.20;;;13.80;89.80;;;;;;5007539;28;20038;-66
2022/05/31 03:01:56;;;;;;;4.25;1.95;;;13.90;90.00;;;;;;5000158;28;20073;-66
2022/05/31 03:04:21;;;;;;;3.40;2.05;;;13.90;90.00;;;;;;5001185;28;20125;-65
2022/05/31 03:06:47;;;;;;;3.15;2.08;;;13.90;90.00;;;;;;5010169;28;20038;-65
2022/05/31 03:09:13;;;;;;;3.88;2.40;;;13.90;90.00;;;;;;4997645;28;20054;-65
2022/05/31 03:11:50;;;;;;;4.72;2.20;;;13.90;90.00;;;;;;5012261;28;20033;-65
2022/05/31 03:14:21;;;;;;;3.30;2.35;;;13.90;90.10;;;;;;5000194;28;20033;-64
2022/05/31 03:16:56;;;;;;;4.15;2.45;;;14.00;90.10;;;;;;4994881;28;20031;-65
2022/05/31 03:19:27;;;;;;;4.57;2.92;;;14.00;90.10;;;;;;4995496;28;20089;-64
2022/05/31 03:22:04;;;;;;;4.63;2.42;;;14.00;90.20;;;;;;4996071;28;20398;-64
2022/05/31 03:24:38;;;;;;;3.70;2.53;;;14.00;90.20;;;;;;5012724;28;20037;-65
2022/05/31 03:27:06;;;;;;;4.35;2.40;;;14.10;90.30;;;;;;5012993;28;20034;-65
2022/05/31 03:29:34;;;;;;;3.05;2.10;;;14.10;90.30;;;;;;5012602;28;20042;-64
2022/05/31 03:31:59;;;;;;;4.50;2.60;;;14.10;90.50;;;;;;4994574;28;20062;-65
2022/05/31 03:34:25;;;;;;;4.55;2.50;;;14.20;90.40;;;;;;5001350;28;20018;-65
2022/05/31 03:36:50;;;;;;;3.75;2.38;;;14.20;90.40;;;;;;4996146;28;20030;-65
2022/05/31 03:39:16;;;;;;;4.45;2.70;;;14.20;90.40;;;;;;5002880;28;20022;-65
2022/05/31 03:41:41;;;;;;;3.40;2.20;;;14.20;90.40;;;;;;5014210;28;20060;-65
2022/05/31 03:44:07;;;;;;;6.05;2.70;;;14.20;90.40;;;;;;5004765;28;20049;-65
2022/05/31 03:46:34;;;;;;;3.40;2.03;;;14.30;90.50;;;;;;5011482;28;20030;-66
2022/05/31 03:48:59;;;;;;;4.63;2.60;;;14.30;90.50;;;;;;5003712;28;20227;-66
2022/05/31 03:51:25;;;;;;;3.35;2.30;;;14.40;90.50;;;;;;5013998;28;20382;-65
2022/05/31 03:53:51;;;;;;;4.40;2.70;;;14.40;90.60;;;;;;5005531;28;20478;-65
2022/05/31 03:56:16;;;;;;;4.65;2.70;;;14.40;90.60;;;;;;5013694;28;20030;-65
2022/05/31 03:58:42;;;;;;;5.53;2.80;;;14.40;90.60;;;;;;5005445;28;20041;-64
2022/05/31 04:01:07;;;;;;;4.78;2.92;;;14.40;90.60;;;;;;5007824;28;20126;-65
2022/05/31 04:03:33;;;;;;;4.80;2.83;;;14.40;90.60;;;;;;5006873;28;20049;-66
2022/05/31 04:05:58;;;;;;;3.35;2.60;;;14.50;90.60;;;;;;4997412;28;20064;-66
2022/05/31 04:08:25;;;;;;;4.20;2.33;;;14.50;90.60;;;;;;5013571;28;20065;-66
2022/05/31 04:10:51;;;;;;;4.75;2.42;;;14.50;90.70;;;;;;4996447;28;20049;-66
2022/05/31 04:13:17;;;;;;;5.85;2.47;;;14.50;90.60;;;;;;4993887;28;20036;-66
2022/05/31 04:15:44;;;;;;;4.45;2.60;;;14.50;90.60;;;;;;4994299;28;20035;-65
2022/05/31 04:18:10;;;;;;;6.50;2.70;;;14.50;90.60;;;;;;5002023;28;20038;-66
2022/05/31 04:20:37;;;;;;;5.38;2.95;;;14.50;90.60;;;;;;5009905;28;20483;-66
2022/05/31 04:25:48;;;;;;;4.07;2.80;;;14.50;90.60;;;;;;5009498;28;20556;-68
2022/05/31 04:28:15;;;;;;;4.28;2.70;;;14.50;90.60;;;;;;5011503;28;20444;-67
2022/05/31 04:30:44;;;;;;;6.60;3.03;;;14.50;90.60;;;;;;5007626;28;20521;-66
2022/05/31 04:33:10;;;;;;;6.22;3.00;;;14.50;90.60;;;;;;5012129;28;20054;-66
2022/05/31 04:35:36;;;;;;;5.78;2.58;;;14.60;90.70;;;;;;5009535;28;20041;-68
2022/05/31 04:38:01;;;;;;;4.53;2.58;;;14.50;90.60;;;;;;5002231;28;20026;-67
2022/05/31 04:40:27;;;;;;;5.38;2.70;;;14.50;90.90;;;;;;5003259;28;20512;-67
2022/05/31 04:42:53;;;;;;;5.03;3.05;;;14.50;90.60;;;;;;5000717;28;20038;-67
2022/05/31 04:45:18;;;;;;;3.20;2.15;;;14.50;90.70;;;;;;5005151;28;20485;-67
2022/05/31 04:47:44;;;;;;;4.43;2.95;;;14.50;90.70;;;;;;4999562;28;20025;-66
2022/05/31 04:50:10;;;;;;;3.63;2.60;;;14.60;90.70;;;;;;5011159;28;20401;-67
2022/05/31 04:52:36;;;;;;;5.40;2.53;;;14.60;90.70;;;;;;5000502;28;20035;-67
2022/05/31 04:55:02;;;;;;;4.10;2.25;;;14.60;90.70;;;;;;5000504;28;20564;-67
2022/05/31 04:57:27;;;;;;;5.72;2.50;;;14.60;90.70;;;;;;5011033;28;20030;-67
2022/05/31 04:59:52;;;;;;;4.85;2.85;;;14.70;90.70;;;;;;5005185;28;20026;-66
2022/05/31 05:02:18;;;;;;;6.40;3.05;;;14.70;90.70;;;;;;4994312;28;20030;-66
2022/05/31 05:04:44;;;;;;;5.07;3.00;;;14.80;90.70;;;;;;4992338;28;20073;-67
2022/05/31 05:07:09;;;;;;;4.55;2.90;;;14.80;90.70;;;;;;5003483;28;20080;-66
2022/05/31 05:09:35;;;;;;;5.72;3.13;;;14.80;90.70;;;;;;4994364;28;20054;-67
2022/05/31 05:12:00;;;;;;;7.50;3.80;;;14.80;90.60;;;;;;5005918;28;20493;-66
2022/05/31 05:14:26;;;;;;;5.90;3.10;;;14.80;90.50;;;;;;5003490;28;20022;-67
2022/05/31 05:16:53;;;;;;;5.80;3.10;;;14.90;90.50;;;;;;5008801;28;20019;-66
2022/05/31 05:19:18;;;;;;;4.60;3.13;;;14.90;90.50;;;;;;4992503;28;20045;-67
2022/05/31 05:21:43;;;;;;;6.07;2.80;;;15.00;90.40;;;;;;4993492;28;20034;-68
2022/05/31 05:24:09;;;;;;;4.57;2.85;;;15.00;90.40;;;;;;5008028;28;20390;-68
2022/05/31 05:26:35;;;;;;;8.13;3.00;;;15.00;90.20;;;;;;5010176;28;20092;-69
2022/05/31 05:31:45;;;;;;;8.47;3.70;;;15.00;90.00;;;;;;5002283;28;20030;-68
2022/05/31 05:34:10;;;;;;;6.72;2.83;;;15.00;90.10;;;;;;5006024;28;20109;-68
2022/05/31 05:36:36;;;;;;;9.32;3.70;;;15.00;90.00;;;;;;5010901;28;20378;-68
2022/05/31 05:39:02;;;;;;;5.28;3.05;;;15.00;90.10;;;;;;4998232;28;20048;-67
2022/05/31 05:41:30;;;;;;;8.77;2.97;;;15.00;90.00;;;;;;5007421;28;20022;-68
2022/05/31 05:43:56;;;;;;;3.85;2.58;;;15.10;89.80;;;;;;5005830;28;20017;-69
2022/05/31 05:46:24;;;;;;;5.63;2.70;;;15.10;89.70;;;;;;4997899;28;20537;-69
2022/05/31 05:48:50;;;;;;;5.28;2.42;;;15.10;89.70;;;;;;4992679;28;20038;-69
2022/05/31 05:51:21;;;;;;;4.53;2.50;;;15.20;89.50;;;;;;4998674;28;20025;-69
2022/05/31 05:53:47;;;;;;;3.75;2.50;;;15.20;89.20;;;;;;5008499;28;20053;-69
2022/05/31 05:56:13;;;;;;;5.45;2.42;;;15.20;89.10;;;;;;4993925;28;20029;-69
2022/05/31 05:58:40;;;;;;;3.80;2.20;;;15.20;89.00;;;;;;4991490;28;20430;-68
2022/05/31 06:01:11;;;;;;;4.43;2.28;;;15.30;88.70;;;;;;5000582;28;20033;-69
2022/05/31 06:03:50;;;;;;;6.03;2.20;;;15.40;88.40;;;;;;5001461;28;20423;-69
2022/05/31 06:06:17;;;;;;;5.65;2.53;;;15.40;87.90;;;;;;4999301;28;20040;-69
2022/05/31 06:09:13;;;;;;;4.60;2.38;;;15.40;88.00;;;;;;4998537;28;20045;-69
2022/05/31 06:11:47;;;;;;;7.55;2.80;;;15.40;87.70;;;;;;5011639;28;20042;-67
2022/05/31 06:14:17;;;;;;;11.65;2.70;;;15.50;87.40;;;;;;4994762;28;20441;-67
2022/05/31 06:16:54;;;;;;;5.30;2.42;;;15.50;87.20;;;;;;4989425;28;20042;-67
2022/05/31 06:19:24;;;;;;;3.78;2.30;;;15.50;87.10;;;;;;4990373;28;20037;-68
2022/05/31 06:21:51;;;;;;;3.80;2.13;;;15.60;86.80;;;;;;4990712;28;20053;-67
2022/05/31 06:24:18;;;;;;;3.95;2.15;;;15.60;86.60;;;;;;4988555;28;20374;-68
2022/05/31 06:26:44;;;;;;;4.43;2.05;;;15.60;86.30;;;;;;4989471;28;20042;-68
2022/05/31 06:29:10;;;;;;;5.50;2.42;;;15.60;86.70;;;;;;4995091;28;20035;-69
2022/05/31 06:31:35;;;;;;;3.85;2.00;;;15.70;86.20;;;;;;4996205;28;20026;-69
2022/05/31 06:34:01;;;;;;;4.68;2.25;;;15.70;85.70;;;;;;4993486;28;20045;-68
2022/05/31 06:36:26;;;;;;;4.05;2.10;;;15.70;85.80;;;;;;5001530;28;20048;-68
2022/05/31 06:38:52;;;;;;;3.97;1.65;;;15.80;85.50;;;;;;5007283;28;20552;-68
2022/05/31 06:41:17;;;;;;;5.28;1.92;;;15.80;84.90;;;;;;5003021;28;20378;-69
2022/05/31 06:43:43;;;;;;;2.80;1.58;;;15.80;84.20;;;;;;4996676;28;20685;-68
2022/05/31 06:46:10;;;;;;;5.22;1.95;;;15.80;84.30;;;;;;5011744;28;20416;-68
2022/05/31 06:48:36;;;;;;;3.22;2.00;;;15.80;84.00;;;;;;5005300;28;20034;-69
2022/05/31 06:51:07;;;;;;;3.65;1.73;;;15.90;84.00;;;;;;5007685;28;20037;-67
2022/05/31 06:59:04;;;;;;;3.10;1.55;;;16.00;82.50;;;;;;5014587;28;20018;-67
2022/05/31 07:01:37;;;;;;;4.18;1.73;;;16.00;82.00;;;;;;5010563;28;20030;-68
2022/05/31 07:04:03;;;;;;;3.60;2.15;;;16.00;81.60;;;;;;5003407;28;20032;-68
2022/05/31 07:06:31;;;;;;;5.03;2.15;;;16.00;81.30;;;;;;5012423;28;20058;-68
2022/05/31 07:08:57;;;;;;;3.33;1.70;;;16.10;81.20;;;;;;5001569;28;20045;-68
2022/05/31 07:11:23;;;;;;;3.70;1.63;;;16.10;80.00;;;;;;5013290;28;20535;-68
2022/05/31 07:13:49;;;;;;;4.00;1.63;;;16.10;79.60;;;;;;5011061;28;20030;-68
2022/05/31 07:16:15;;;;;;;2.72;1.42;;;16.10;79.90;;;;;;5005206;28;20026;-68
2022/05/31 07:18:41;;;;;;;3.53;1.55;;;16.20;79.60;;;;;;5012346;28;20022;-68
2022/05/31 07:21:07;;;;;;;4.60;2.28;;;16.20;79.10;;;;;;5008960;28;20041;-68
2022/05/31 07:23:32;;;;;;;3.33;1.50;;;16.30;79.90;;;;;;5013640;28;20026;-67
2022/05/31 07:26:03;;;;;;;3.78;1.42;;;16.40;79.00;;;;;;5009377;28;20036;-67
2022/05/31 07:28:29;;;;;;;3.50;1.83;;;16.50;79.20;;;;;;5010347;28;20046;-67
2022/05/31 07:30:56;;;;;;;5.22;1.98;;;16.50;79.00;;;;;;5007144;28;20101;-67
2022/05/31 07:33:22;;;;;;;3.45;1.60;;;16.60;78.50;;;;;;5012566;28;20053;-67
2022/05/31 07:35:49;;;;;;;4.93;1.80;;;16.60;78.20;;;;;;5013345;28;20045;-67
2022/05/31 07:38:20;;;;;;;4.00;1.50;;;16.70;77.80;;;;;;5010529;28;20022;-67
2022/05/31 07:40:46;;;;;;;1.95;1.30;;;16.80;77.60;;;;;;5012005;28;20025;-67
2022/05/31 07:43:11;;;;;;;3.40;1.50;;;16.80;77.30;;;;;;5008835;28;20026;-68
2022/05/31 07:45:37;;;;;;;6.20;1.83;;;16.90;77.20;;;;;;5010007;28;20057;-68
2022/05/31 07:48:04;;;;;;;3.03;1.70;;;17.10;76.40;;;;;;5004664;28;20022;-67
2022/05/31 07:50:30;;;;;;;3.90;1.70;;;17.10;75.30;;;;;;5008335;28;20034;-67
2022/05/31 07:52:59;;;;;;;4.35;1.50;;;17.20;75.40;;;;;;5016813;28;20087;-68
2022/05/31 07:55:25;;;;;;;4.70;2.05;;;17.30;75.40;;;;;;5009850;28;20377;-69
2022/05/31 08:00:34;;;;;;;4.03;1.42;;;17.50;74.90;;;;;;4997341;28;20049;-67
2022/05/31 08:02:59;;;;;;;3.80;1.63;;;17.60;74.70;;;;;;5010557;28;20018;-68
2022/05/31 08:05:25;;;;;;;4.95;1.73;;;17.70;74.40;;;;;;5001065;28;20124;-67
2022/05/31 08:07:53;;;;;;;2.50;1.40;;;17.80;73.90;;;;;;4996044;28;20037;-67
2022/05/31 08:10:20;;;;;;;2.63;1.55;;;17.90;74.10;;;;;;5010193;28;20292;-68
2022/05/31 08:12:45;;;;;;;2.88;1.52;;;18.00;73.80;;;;;;5030627;28;20432;-67
2022/05/31 08:15:11;;;;;;;3.40;1.67;;;18.00;73.20;;;;;;5010295;28;20026;-67
2022/05/31 08:17:37;;;;;;;3.53;1.88;;;18.00;73.00;;;;;;5027266;28;20488;-67
2022/05/31 08:20:04;;;;;;;4.15;1.80;;;18.00;72.50;;;;;;5007735;28;20019;-67
2022/05/31 08:22:30;;;;;;;3.67;1.88;;;18.00;72.40;;;;;;4995323;28;20386;-67
2022/05/31 08:24:56;;;;;;;4.80;1.45;;;18.10;72.40;;;;;;4999507;28;20019;-67
2022/05/31 08:27:21;;;;;;;3.33;1.63;;;18.10;71.50;;;;;;5003115;28;20037;-67
2022/05/31 08:29:47;;;;;;;2.65;1.50;;;18.10;71.50;;;;;;5005330;28;20505;-67
2022/05/31 08:32:12;;;;;;;2.50;1.42;;;18.20;71.00;;;;;;5014433;28;20030;-67
2022/05/31 08:34:38;;;;;;;2.80;1.40;;;18.10;70.70;;;;;;4994042;28;20030;-68
2022/05/31 08:37:04;;;;;;;3.72;2.10;;;18.20;70.20;;;;;;5018121;28;20026;-67
2022/05/31 08:39:29;;;;;;;3.60;1.73;;;18.20;69.90;;;;;;5009025;28;20420;-68
2022/05/31 08:42:08;;;;;;;2.13;1.40;;;18.20;69.90;;;;;;5011751;28;20028;-67
2022/05/31 08:44:47;;;;;;;2.38;1.42;;;18.20;70.20;;;;;;5010686;28;20386;-67
2022/05/31 08:47:47;;;;;;;5.75;1.48;;;18.20;69.50;;;;;;5005302;28;20030;-67
2022/05/31 08:53:30;;;;;;;3.60;2.05;;;18.40;69.90;;;;;;5026837;28;20033;-67
2022/05/31 08:58:59;;;;;;;3.20;1.45;;;18.40;68.30;;;;;;4997309;28;20039;-67
2022/05/31 09:01:31;;;;;;;2.80;1.50;;;18.40;68.20;;;;;;5013500;28;20017;-67
2022/05/31 09:04:12;;;;;;;5.15;1.90;;;18.50;67.40;;;;;;5020044;28;20026;-67
2022/05/31 09:06:56;;;;;;;3.38;1.30;;;18.60;67.60;;;;;;5004852;28;20022;-67
2022/05/31 09:09:31;;;;;;;5.53;1.80;;;18.70;68.20;;;;;;5010704;28;20054;-68
2022/05/31 09:12:19;;;;;;;3.67;1.25;;;18.80;67.40;;;;;;5008982;28;20049;-68
2022/05/31 09:15:01;;;;;;;1.95;1.30;;;19.00;67.30;;;;;;5008321;28;20140;-68
2022/05/31 09:17:42;;;;;;;4.07;1.50;;;19.10;66.90;;;;;;5007251;28;20030;-68
2022/05/31 09:20:40;;;;;;;3.75;1.55;;;19.30;66.40;;;;;;4997493;28;20037;-68
2022/05/31 09:23:07;;;;;;;3.13;1.35;;;19.40;66.00;;;;;;4992315;28;20031;-68
2022/05/31 09:25:39;;;;;;;4.22;2.05;;;19.50;65.40;;;;;;5007844;28;20030;-68
2022/05/31 09:28:17;;;;;;;4.88;2.00;;;19.70;65.80;;;;;;4991714;28;20022;-68
2022/05/31 09:30:46;;;;;;;6.22;1.50;;;19.80;65.60;;;;;;5015801;28;20037;-68
2022/05/31 09:33:12;;;;;;;3.70;1.50;;;19.90;64.90;;;;;;5011055;28;20026;-68
2022/05/31 09:36:09;;;;;;;1.63;1.30;;;20.00;64.60;;;;;;4992964;28;20508;-68
2022/05/31 09:39:03;;;;;;;2.20;1.38;;;20.00;62.60;;;;;;4995320;28;20104;-67
2022/05/31 09:41:43;;;;;;;2.78;2.22;;;20.00;63.30;;;;;;4995028;28;20363;-67
2022/05/31 09:44:35;;;;;;;2.60;1.38;;;20.00;63.10;;;;;;5016607;28;20386;-67
2022/05/31 09:47:04;;;;;;;4.03;1.40;;;20.10;63.20;;;;;;5014683;28;20048;-68
2022/05/31 09:49:43;;;;;;;3.17;1.40;;;20.20;62.80;;;;;;4997756;28;20078;-67
2022/05/31 09:52:37;;;;;;;2.90;1.60;;;20.30;62.80;;;;;;5013987;28;20124;-68
2022/05/31 09:58:23;;;;;;;2.55;1.42;;;20.50;62.80;;;;;;4995442;28;20490;-67
2022/05/31 10:01:20;;;;;;;2.40;1.45;;;20.60;61.50;;;;;;5004402;28;20030;-68
2022/05/31 10:03:52;;;;;;;2.88;1.52;;;20.80;61.60;;;;;;5006247;28;22468;-67
2022/05/31 10:06:23;;;;;;;2.95;1.45;;;21.00;61.20;;;;;;5006687;28;20030;-65
2022/05/31 10:08:54;;;;;;;4.47;2.20;;;21.10;61.10;;;;;;5000157;28;20141;-66
2022/05/31 10:11:32;;;;;;;2.85;1.50;;;21.30;60.90;;;;;;5008721;28;20037;-67
2022/05/31 10:14:25;;;;;;;3.15;1.45;;;21.40;59.90;;;;;;5000620;28;20030;-66
2022/05/31 10:16:52;;;;;;;1.98;1.42;;;21.50;58.90;;;;;;5004688;28;20393;-68
2022/05/31 10:19:27;;;;;;;3.70;1.60;;;21.50;59.00;;;;;;4999157;28;20042;-68
2022/05/31 10:21:53;;;;;;;5.22;1.70;;;21.70;59.00;;;;;;5010050;28;20397;-66
2022/05/31 10:24:21;;;;;;;3.70;1.50;;;21.80;58.60;;;;;;5016960;28;20316;-66
2022/05/31 10:27:12;;;;;;;2.60;1.40;;;21.90;57.90;;;;;;5009264;28;20027;-66
2022/05/31 10:29:47;;;;;;;2.33;1.17;;;22.00;58.00;;;;;;5006944;28;20041;-66
2022/05/31 10:32:31;;;;;;;3.08;1.77;;;22.20;57.20;;;;;;5003032;28;20516;-64
2022/05/31 10:35:16;;;;;;;4.63;1.40;;;22.20;55.90;;;;;;5001251;28;20026;-66
2022/05/31 10:38:19;;;;;;;2.33;1.42;;;22.20;55.90;;;;;;5011448;28;20493;-66
2022/05/31 10:40:57;;;;;;;2.83;1.50;;;22.20;55.40;;;;;;5012656;28;20079;-67
2022/05/31 10:44:04;;;;;;;3.47;1.30;;;22.20;56.00;;;;;;5015343;28;20476;-65
2022/05/31 10:46:35;;;;;;;3.95;1.33;;;22.40;55.70;;;;;;5001223;28;20046;-65
2022/05/31 10:49:15;;;;;;;3.53;1.58;;;22.40;55.10;;;;;;5006556;28;20481;-66
2022/05/31 10:52:07;;;;;;;2.10;1.40;;;22.40;55.10;;;;;;5001870;28;20124;-66
2022/05/31 10:55:08;;;;;;;3.03;1.33;;;22.40;55.90;;;;;;4996959;28;20492;-66
2022/05/31 10:58:04;;;;;;;4.15;1.73;;;22.50;55.20;;;;;;5012340;28;20380;-66
2022/05/31 11:00:37;;;;;;;4.80;1.23;;;22.50;55.70;;;;;;5008718;28;20025;-66
2022/05/31 11:03:17;;;;;;;3.10;1.70;;;22.50;55.30;;;;;;5009037;28;20084;-66
2022/05/31 11:05:50;;;;;;;2.30;1.40;;;22.60;54.60;;;;;;5006524;28;20026;-66
2022/05/31 11:11:35;;;;;;;3.95;1.70;;;22.60;53.80;;;;;;5028029;28;20045;-66
2022/05/31 11:14:18;;;;;;;2.40;1.50;;;22.70;54.50;;;;;;5021760;28;20022;-66
2022/05/31 11:17:03;;;;;;;3.95;1.45;;;22.80;54.10;;;;;;4991820;28;20066;-66
2022/05/31 11:20:03;;;;;;;3.85;2.22;;;22.80;54.50;;;;;;4997061;28;20120;-66
2022/05/31 11:22:49;;;;;;;4.03;1.58;;;22.90;53.50;;;;;;5008568;28;20096;-66
2022/05/31 11:25:25;;;;;;;3.13;1.77;;;22.90;54.20;;;;;;5007783;28;20026;-66
2022/05/31 11:28:23;;;;;;;2.65;1.40;;;22.90;54.40;;;;;;5014562;28;20137;-66
2022/05/31 11:31:27;;;;;;;3.65;1.60;;;22.90;54.00;;;;;;5007417;28;20074;-66
2022/05/31 11:34:57;;;;;;;2.92;1.60;;;22.80;54.10;;;;;;5009357;28;20037;-66
2022/05/31 11:37:41;;;;;;;2.50;1.50;;;22.80;53.80;;;;;;4984717;28;20121;-66
2022/05/31 11:40:43;;;;;;;4.53;1.52;;;22.80;53.40;;;;;;5002877;28;20038;-66
2022/05/31 11:43:35;;;;;;;2.28;1.52;;;22.90;54.30;;;;;;5013454;28;20038;-65
2022/05/31 11:46:11;;;;;;;4.10;1.83;;;22.90;53.40;;;;;;5012854;28;20160;-66
2022/05/31 11:48:44;;;;;;;2.95;1.73;;;22.90;51.50;;;;;;5012948;28;20033;-64
2022/05/31 11:51:59;;;;;;;4.82;1.95;;;22.70;52.80;;;;;;5009680;28;20041;-65
2022/05/31 11:55:25;;;;;;;2.42;1.38;;;22.60;53.20;;;;;;5000419;28;20154;-65
2022/05/31 11:57:59;;;;;;;5.53;1.90;;;22.50;52.40;;;;;;5003887;28;20053;-65
2022/05/31 12:00:31;;;;;;;2.72;1.35;;;22.50;53.50;;;;;;5007044;28;20046;-66
2022/05/31 12:03:06;;;;;;;4.18;1.90;;;22.50;53.60;;;;;;5014320;28;20037;-65
2022/05/31 12:05:40;;;;;;;2.95;1.50;;;22.60;53.20;;;;;;4997617;28;20023;-66
2022/05/31 12:08:09;;;;;;;2.33;1.55;;;22.60;53.30;;;;;;4994488;28;20122;-65
2022/05/31 12:11:01;;;;;;;1.85;1.23;;;22.70;53.50;;;;;;5008824;28;20060;-65
2022/05/31 12:13:27;;;;;;;3.28;2.15;;;22.80;52.60;;;;;;5014032;28;20058;-66
2022/05/31 12:15:54;;;;;;;4.07;1.35;;;22.90;52.20;;;;;;5011467;28;20116;-66
2022/05/31 12:18:40;;;;;;;3.25;1.60;;;23.00;53.00;;;;;;5008768;28;20026;-66
2022/05/31 12:21:35;;;;;;;2.25;1.60;;;23.00;52.50;;;;;;5011429;28;20489;-66
2022/05/31 12:24:09;;;;;;;2.40;1.40;;;23.00;53.00;;;;;;5004650;28;20031;-66
2022/05/31 12:26:41;;;;;;;3.63;1.38;;;23.00;52.10;;;;;;5009729;28;20080;-66
2022/05/31 12:29:14;;;;;;;4.82;1.70;;;23.10;52.30;;;;;;4997552;28;20021;-66
2022/05/31 12:31:41;;;;;;;2.17;1.48;;;23.30;52.80;;;;;;5001817;28;20042;-65
2022/05/31 12:34:18;;;;;;;1.92;1.40;;;23.40;52.00;;;;;;5005055;28;20037;-66
2022/05/31 12:37:09;;;;;;;2.45;1.50;;;23.40;51.50;;;;;;5012296;28;20521;-66
2022/05/31 12:39:37;;;;;;;2.85;1.60;;;23.40;51.90;;;;;;4997670;28;20045;-66
2022/05/31 12:42:14;;;;;;;3.75;1.60;;;23.50;51.70;;;;;;4997232;28;20029;-66
2022/05/31 12:44:45;;;;;;;3.05;1.60;;;23.50;52.60;;;;;;5002814;28;20105;-66
2022/05/31 12:47:16;;;;;;;4.88;1.70;;;23.40;52.00;;;;;;4998752;28;20116;-65
2022/05/31 12:49:57;;;;;;;4.53;1.83;;;23.40;51.10;;;;;;5006581;28;20067;-66
2022/05/31 12:52:38;;;;;;;4.88;1.60;;;23.40;52.00;;;;;;5000328;28;20029;-66
2022/05/31 12:55:10;;;;;;;4.45;2.25;;;23.30;52.00;;;;;;5004818;28;20030;-66
2022/05/31 12:58:26;;;;;;;8.60;4.10;;;23.10;52.10;;;;;;4998565;28;20043;-66
2022/05/31 13:00:47;;;;;;;8.07;5.22;;;23.20;52.80;;;;;;5010559;28;20084;-66
2022/05/31 13:03:32;;;;;;;6.45;3.00;;;23.20;52.30;;;;;;5012195;28;20041;-66
2022/05/31 13:06:08;;;;;;;5.07;2.60;;;23.30;51.30;;;;;;5012724;28;20088;-66
2022/05/31 13:08:48;;;;;;;3.05;1.83;;;23.20;51.70;;;;;;4992811;28;20057;-67
2022/05/31 13:20:23;;;;;;;3.85;2.03;;;23.00;51.70;;;;;;5009055;28;20068;-66
2022/05/31 13:22:57;;;;;;;4.30;2.30;;;23.00;52.00;;;;;;5015807;28;20153;-66
2022/05/31 13:25:44;;;;;;;3.40;1.95;;;23.00;52.10;;;;;;5012660;28;20124;-66
2022/05/31 13:28:29;;;;;;;2.10;1.58;;;22.90;52.00;;;;;;5009203;28;20030;-65
2022/05/31 13:31:01;;;;;;;4.22;1.65;;;22.90;51.60;;;;;;5006466;28;20042;-65
2022/05/31 13:33:28;;;;;;;2.47;1.55;;;22.90;51.30;;;;;;4995754;28;20031;-65
2022/05/31 13:36:02;;;;;;;3.15;1.70;;;23.00;51.00;;;;;;5013998;28;20058;-66
2022/05/31 13:38:29;;;;;;;;;;;23.10;51.00;;;;;;4998135;28;20034;-66
2022/05/31 13:40:57;;;;;;;3.20;1.70;;;23.30;52.30;;;;;;5011967;28;20277;-66
2022/05/31 13:43:27;;;;;;;2.70;1.63;;;23.30;52.10;;;;;;4992484;28;20029;-67
2022/05/31 13:45:55;;;;;;;3.38;1.77;;;23.40;51.60;;;;;;4997825;28;20021;-66
2022/05/31 13:48:23;;;;;;;5.32;2.05;;;23.30;51.70;;;;;;5011846;28;20030;-67